CheckWX is a tool to help pilots better visualize weather data.  It is not intended as a substitute for an official pre-flight weather briefing.

06:34:47 UTC

CYNM METAR
Matagami Airport
Matagami, Canada
Current

35 mins ago

CYNM 230600Z AUTO 08006KT 050V110 9SM SCT070 OVC089 02/M07 A3018 RMK SLP237
Observed
Apr-23 @ 06:00 UTC
Wind
  • 080° at 6 KTS
Visibility
9 SM
Flight Rules
VFR
Cloud Levels
  • Scattered at 7,000' AGL
  • Overcast at 8,900' AGL
Temperature
C / 36°F
Dewpoint
-7°C / 19°F
Humidity
52%
Altimeter
30.18" Hg
Pressure
1022.02 hPa
Previous

2 hours ago

CYNM 230500Z AUTO 10005KT 060V120 9SM OVC095 03/M07 A3021 RMK SLP245
Observed
Apr-23 @ 05:00 UTC
Wind
  • 100° at 5 KTS
Visibility
9 SM
Flight Rules
VFR
Cloud Levels
  • Overcast at 9,500' AGL
Temperature
C / 37°F
Dewpoint
-7°C / 19°F
Humidity
48%
Altimeter
30.21" Hg
Pressure
1023.02 hPa
Previous

3 hours ago

CYNM 230400Z AUTO 10005KT 9SM OVC100 03/M07 A3022 RMK PRESFR SLP250
Observed
Apr-23 @ 04:00 UTC
Wind
  • 100° at 5 KTS
Visibility
9 SM
Flight Rules
VFR
Cloud Levels
  • Overcast at 10,000' AGL
Temperature
C / 37°F
Dewpoint
-7°C / 19°F
Humidity
48%
Altimeter
30.22" Hg
Pressure
1023.42 hPa